Time;durP1;ratioP1;P1;durP2;ratioP2;P2;SDS_P1;SDS_P2;PMS_P1;PMS_P2;Temp;Humidity;BMP_temperature;BMP_pressure;BME280_temperature;BME280_humidity;BME280_pressure;Samples;Min_cycle;Max_cycle;Signal;HPM_P1;HPM_P2
2022/03/23 00:01:03;;;;;;;17.23;15.05;;;;;;;;;;5033571;28;20049;-71
2022/03/23 00:03:32;;;;;;;23.20;15.77;;;;;;;;;;5034160;28;20128;-76
2022/03/23 00:06:04;;;;;;;22.85;16.98;;;;;;;;;;5033969;28;20041;-76
2022/03/23 00:08:33;;;;;;;24.25;17.77;;;;;;;;;;5034037;28;20099;-76
2022/03/23 00:11:03;;;;;;;20.02;15.50;;;;;;;;;;5033661;28;20049;-76
2022/03/23 00:13:31;;;;;;;22.65;16.48;;;;;;;;;;5034158;28;20054;-76
2022/03/23 00:16:00;;;;;;;21.08;17.00;;;;;;;;;;5039950;28;20053;-72
2022/03/23 00:18:31;;;;;;;18.60;15.63;;;;;;;;;;5053739;28;20119;-72
2022/03/23 00:21:00;;;;;;;19.00;16.52;;;;;;;;;;5053439;28;20045;-71
2022/03/23 00:23:29;;;;;;;25.35;17.42;;;;;;;;;;5054015;28;20075;-71
2022/03/23 00:25:59;;;;;;;20.15;15.98;;;;;;;;;;5053149;28;20061;-71
2022/03/23 00:28:28;;;;;;;21.77;15.18;;;;;;;;;;5052987;28;20454;-71
2022/03/23 00:30:58;;;;;;;19.83;14.70;;;;;;;;;;5053134;28;20044;-71
2022/03/23 00:33:31;;;;;;;19.50;15.07;;;;;;;;;;5053431;28;20170;-71
2022/03/23 00:36:01;;;;;;;19.70;16.02;;;;;;;;;;5052881;28;20037;-71
2022/03/23 00:38:29;;;;;;;20.83;14.70;;;;;;;;;;5052864;28;20056;-71
2022/03/23 00:40:58;;;;;;;19.65;16.35;;;;;;;;;;5053548;28;20053;-72
2022/03/23 00:43:26;;;;;;;23.17;16.52;;;;;;;;;;5052916;28;20049;-72
2022/03/23 00:45:57;;;;;;;18.98;15.85;;;;;;;;;;5051876;28;20041;-72
2022/03/23 00:48:26;;;;;;;20.35;13.95;;;;;;;;;;5052998;28;20045;-72
2022/03/23 00:50:55;;;;;;;18.85;16.17;;;;;;;;;;5033578;28;20060;-71
2022/03/23 00:53:24;;;;;;;19.95;15.00;;;;;;;;;;5035053;28;20132;-72
2022/03/23 00:55:54;;;;;;;20.13;16.30;;;;;;;;;;5037340;28;20481;-72
2022/03/23 00:58:23;;;;;;;23.10;16.23;;;;;;;;;;5036075;28;20049;-74
2022/03/23 01:00:51;;;;;;;20.80;16.25;;;;;;;;;;5037456;28;20041;-72
2022/03/23 01:03:20;;;;;;;22.25;16.15;;;;;;;;;;5036053;28;20049;-75
2022/03/23 01:05:53;;;;;;;20.33;15.43;;;;;;;;;;5037206;28;20520;-72
2022/03/23 01:08:22;;;;;;;19.35;14.85;;;;;;;;;;5037375;28;20042;-73
2022/03/23 01:10:52;;;;;;;25.23;16.00;;;;;;;;;;5037039;28;20089;-72
2022/03/23 01:13:21;;;;;;;24.13;15.50;;;;;;;;;;5037189;28;20049;-72
2022/03/23 01:15:49;;;;;;;22.15;15.85;;;;;;;;;;5037051;28;20050;-72
2022/03/23 01:18:18;;;;;;;21.98;14.95;;;;;;;;;;5035829;28;20099;-72
2022/03/23 01:20:46;;;;;;;21.50;16.35;;;;;;;;;;5036657;28;20084;-72
2022/03/23 01:23:15;;;;;;;21.98;15.32;;;;;;;;;;5035765;28;20069;-72
2022/03/23 01:25:44;;;;;;;19.63;15.57;;;;;;;;;;5053109;28;20041;-72
2022/03/23 01:28:12;;;;;;;18.30;14.98;;;;;;;;;;5056523;28;20069;-76
2022/03/23 01:30:41;;;;;;;17.25;14.13;;;;;;;;;;5055171;28;20053;-76
2022/03/23 01:33:10;;;;;;;19.15;15.65;;;;;;;;;;5056779;28;20060;-76
2022/03/23 01:35:38;;;;;;;19.80;14.82;;;;;;;;;;5056184;28;20087;-76
2022/03/23 01:38:07;;;;;;;19.52;14.57;;;;;;;;;;5056661;28;20554;-76
2022/03/23 01:40:36;;;;;;;21.80;15.77;;;;;;;;;;5056653;28;20041;-72
2022/03/23 01:43:05;;;;;;;17.92;14.23;;;;;;;;;;5056063;28;20069;-72
2022/03/23 01:45:34;;;;;;;19.10;16.92;;;;;;;;;;5055329;28;20032;-72
2022/03/23 01:48:04;;;;;;;24.67;15.57;;;;;;;;;;5037666;28;20049;-72
2022/03/23 01:50:33;;;;;;;20.48;14.20;;;;;;;;;;5036486;28;20459;-71
2022/03/23 01:53:02;;;;;;;20.75;15.35;;;;;;;;;;5036541;28;20072;-72
2022/03/23 01:55:31;;;;;;;37.05;16.13;;;;;;;;;;5035546;28;20502;-72
2022/03/23 01:58:00;;;;;;;24.65;14.82;;;;;;;;;;5034988;28;20049;-72
2022/03/23 02:00:29;;;;;;;17.67;14.57;;;;;;;;;;5035108;28;20096;-72
2022/03/23 02:02:58;;;;;;;19.60;15.02;;;;;;;;;;5035027;28;20061;-71
2022/03/23 02:05:27;;;;;;;19.13;16.80;;;;;;;;;;5034326;28;20042;-72
2022/03/23 02:07:56;;;;;;;20.42;16.42;;;;;;;;;;5036392;28;20057;-80
2022/03/23 02:10:28;;;;;;;16.92;13.70;;;;;;;;;;5036558;28;20041;-79
2022/03/23 02:13:16;;;;;;;22.77;15.52;;;;;;;;;;5035187;28;20103;-72
2022/03/23 02:15:44;;;;;;;19.77;14.23;;;;;;;;;;5034915;28;20077;-72
2022/03/23 02:18:13;;;;;;;20.55;15.07;;;;;;;;;;5051034;28;20055;-72
2022/03/23 02:20:43;;;;;;;17.08;14.88;;;;;;;;;;5044303;28;20412;-72
2022/03/23 02:23:11;;;;;;;19.77;16.50;;;;;;;;;;5037913;28;20507;-72
2022/03/23 02:25:40;;;;;;;20.85;16.67;;;;;;;;;;5055176;28;20049;-72
2022/03/23 02:28:09;;;;;;;19.73;15.32;;;;;;;;;;5055655;28;20048;-72
2022/03/23 02:30:38;;;;;;;20.85;15.10;;;;;;;;;;5055415;28;20530;-73
2022/03/23 02:33:09;;;;;;;18.80;14.27;;;;;;;;;;5055989;28;20123;-72
2022/03/23 02:35:38;;;;;;;19.15;15.23;;;;;;;;;;5055218;28;20095;-71
2022/03/23 02:38:09;;;;;;;18.25;15.30;;;;;;;;;;5055760;28;20090;-75
2022/03/23 02:40:39;;;;;;;21.73;14.02;;;;;;;;;;5055549;28;20053;-75
2022/03/23 02:43:07;;;;;;;18.00;14.70;;;;;;;;;;5055110;28;20049;-76
2022/03/23 02:45:36;;;;;;;22.10;14.68;;;;;;;;;;5055160;28;20572;-75
2022/03/23 02:48:06;;;;;;;19.75;14.35;;;;;;;;;;5055133;28;20053;-75
2022/03/23 02:50:35;;;;;;;20.95;15.98;;;;;;;;;;5055162;28;20455;-76
2022/03/23 03:02:16;;;;;;;22.75;16.42;;;;;;;;;;5055348;28;20048;-75
2022/03/23 03:04:46;;;;;;;18.10;14.50;;;;;;;;;;5055110;28;20041;-75
2022/03/23 03:07:16;;;;;;;21.10;15.32;;;;;;;;;;5055058;28;20049;-74
2022/03/23 03:09:46;;;;;;;20.08;14.43;;;;;;;;;;5055022;28;20087;-74
2022/03/23 03:12:16;;;;;;;19.65;15.38;;;;;;;;;;5054654;28;20049;-75
2022/03/23 03:14:46;;;;;;;16.88;14.10;;;;;;;;;;5054532;28;20095;-74
2022/03/23 03:17:14;;;;;;;19.00;14.35;;;;;;;;;;5052353;28;20583;-74
2022/03/23 03:19:43;;;;;;;17.50;14.10;;;;;;;;;;5053445;28;20045;-76
2022/03/23 03:22:13;;;;;;;18.05;14.35;;;;;;;;;;5054524;28;20056;-77
2022/03/23 03:24:41;;;;;;;15.13;12.75;;;;;;;;;;5054500;28;20053;-77
2022/03/23 03:27:10;;;;;;;22.85;14.35;;;;;;;;;;5053542;28;20048;-77
2022/03/23 03:29:39;;;;;;;22.05;16.05;;;;;;;;;;5054236;28;20045;-72
2022/03/23 03:32:09;;;;;;;16.83;14.43;;;;;;;;;;5054536;28;20373;-71
2022/03/23 03:34:37;;;;;;;24.35;14.75;;;;;;;;;;5054574;28;20057;-72
2022/03/23 03:37:05;;;;;;;18.70;14.43;;;;;;;;;;5052887;28;20049;-72
2022/03/23 03:39:35;;;;;;;22.27;16.05;;;;;;;;;;5054123;28;20124;-72
2022/03/23 03:42:04;;;;;;;20.08;15.38;;;;;;;;;;5054120;28;20041;-72
2022/03/23 03:44:33;;;;;;;24.50;17.00;;;;;;;;;;5053904;28;20048;-73
2022/03/23 03:47:02;;;;;;;18.63;13.82;;;;;;;;;;5053143;28;20127;-72
2022/03/23 03:49:34;;;;;;;19.92;17.17;;;;;;;;;;5053652;28;20072;-72
2022/03/23 03:52:04;;;;;;;18.52;13.82;;;;;;;;;;5053975;28;20099;-72
2022/03/23 03:54:34;;;;;;;18.30;14.82;;;;;;;;;;5054138;28;20049;-72
2022/03/23 03:57:03;;;;;;;19.38;14.52;;;;;;;;;;5053315;28;20049;-72
2022/03/23 03:59:32;;;;;;;17.55;14.43;;;;;;;;;;5053361;28;20407;-73
2022/03/23 04:01:59;;;;;;;18.60;14.43;;;;;;;;;;5053134;28;20401;-72
2022/03/23 04:04:28;;;;;;;18.08;15.15;;;;;;;;;;5053741;28;20048;-72
2022/03/23 04:06:57;;;;;;;18.45;15.15;;;;;;;;;;5053604;28;20084;-73
2022/03/23 04:09:26;;;;;;;17.60;13.63;;;;;;;;;;5053726;28;20459;-73
2022/03/23 04:11:55;;;;;;;24.05;15.55;;;;;;;;;;5053752;28;20079;-72
2022/03/23 04:14:24;;;;;;;16.38;13.93;;;;;;;;;;5053239;28;20500;-72
2022/03/23 04:16:53;;;;;;;22.13;14.45;;;;;;;;;;5053358;28;20125;-72
2022/03/23 04:19:22;;;;;;;22.17;16.83;;;;;;;;;;5053408;28;20080;-72
2022/03/23 04:21:51;;;;;;;18.42;14.07;;;;;;;;;;5053211;28;20049;-72
2022/03/23 04:24:20;;;;;;;19.30;14.52;;;;;;;;;;5053216;28;20102;-71
2022/03/23 04:26:50;;;;;;;17.63;13.38;;;;;;;;;;5053522;28;20057;-72
2022/03/23 04:29:19;;;;;;;18.98;15.23;;;;;;;;;;5053053;28;20064;-72
2022/03/23 04:31:49;;;;;;;15.30;12.55;;;;;;;;;;5053091;28;20045;-72
2022/03/23 04:34:19;;;;;;;16.95;14.63;;;;;;;;;;5053613;28;20052;-71
2022/03/23 04:36:48;;;;;;;21.60;15.38;;;;;;;;;;5053543;28;20493;-71
2022/03/23 04:39:18;;;;;;;23.75;14.18;;;;;;;;;;5052822;28;20088;-71
2022/03/23 04:41:47;;;;;;;16.75;13.02;;;;;;;;;;5052686;28;20052;-71
2022/03/23 04:44:15;;;;;;;19.23;14.80;;;;;;;;;;5052814;28;20488;-71
2022/03/23 04:46:44;;;;;;;17.15;12.60;;;;;;;;;;5041877;28;20124;-70
2022/03/23 04:49:14;;;;;;;15.82;13.25;;;;;;;;;;5037893;28;20103;-71
2022/03/23 04:51:45;;;;;;;14.30;12.50;;;;;;;;;;5033668;28;20132;-70
2022/03/23 04:54:14;;;;;;;21.35;13.20;;;;;;;;;;5033524;28;20103;-71
2022/03/23 04:56:43;;;;;;;19.30;14.98;;;;;;;;;;5033652;28;20075;-71
2022/03/23 04:59:13;;;;;;;16.90;14.27;;;;;;;;;;5033753;28;20052;-71
2022/03/23 05:01:42;;;;;;;16.15;13.48;;;;;;;;;;5033669;28;20057;-70
2022/03/23 05:04:12;;;;;;;18.42;13.20;;;;;;;;;;5033787;28;20054;-78
2022/03/23 05:06:40;;;;;;;18.25;14.25;;;;;;;;;;5033633;28;20049;-70
2022/03/23 05:09:09;;;;;;;17.75;13.13;;;;;;;;;;5040131;28;20141;-79
2022/03/23 05:11:38;;;;;;;13.95;11.13;;;;;;;;;;5036267;28;20047;-80
2022/03/23 05:14:07;;;;;;;16.35;13.00;;;;;;;;;;5036276;28;20058;-79
2022/03/23 05:16:39;;;;;;;18.63;14.38;;;;;;;;;;5042200;28;20053;-80
2022/03/23 05:19:11;;;;;;;20.52;13.60;;;;;;;;;;5041431;28;20060;-80
2022/03/23 05:21:42;;;;;;;17.23;13.85;;;;;;;;;;5034067;28;20063;-82
2022/03/23 05:24:13;;;;;;;20.00;13.93;;;;;;;;;;5036425;28;20045;-82
2022/03/23 05:26:42;;;;;;;23.00;15.50;;;;;;;;;;5036329;28;20553;-82
2022/03/23 05:29:10;;;;;;;18.58;13.65;;;;;;;;;;5035414;28;20089;-75
2022/03/23 05:31:41;;;;;;;15.73;13.38;;;;;;;;;;5037566;28;20462;-75
2022/03/23 05:34:09;;;;;;;17.02;12.35;;;;;;;;;;5035519;28;20041;-75
2022/03/23 05:36:36;;;;;;;20.55;12.80;;;;;;;;;;5038298;28;20057;-75
2022/03/23 05:39:05;;;;;;;17.20;14.02;;;;;;;;;;5035484;28;20136;-76
2022/03/23 05:41:32;;;;;;;19.48;14.02;;;;;;;;;;5070267;28;20407;-76
2022/03/23 05:44:02;;;;;;;16.88;14.43;;;;;;;;;;5037131;28;20124;-74
2022/03/23 05:46:31;;;;;;;20.52;14.15;;;;;;;;;;5036845;28;20423;-74
2022/03/23 05:49:00;;;;;;;18.42;13.40;;;;;;;;;;5035637;28;20128;-74
2022/03/23 05:51:29;;;;;;;17.17;14.57;;;;;;;;;;5035965;28;20045;-74
2022/03/23 05:53:58;;;;;;;20.05;13.35;;;;;;;;;;5036533;28;20050;-74
2022/03/23 05:56:30;;;;;;;16.02;13.48;;;;;;;;;;5036192;28;20474;-73
2022/03/23 05:58:58;;;;;;;18.95;12.55;;;;;;;;;;5036369;28;20053;-73
2022/03/23 06:01:27;;;;;;;16.10;13.63;;;;;;;;;;5036393;28;20076;-73
2022/03/23 06:03:56;;;;;;;17.15;12.98;;;;;;;;;;5055529;28;20103;-71
2022/03/23 06:06:24;;;;;;;16.75;12.23;;;;;;;;;;5054496;28;20056;-71
2022/03/23 06:08:54;;;;;;;25.30;14.73;;;;;;;;;;5045035;28;20060;-77
2022/03/23 06:11:23;;;;;;;19.02;14.48;;;;;;;;;;5045747;28;20132;-80
2022/03/23 06:13:53;;;;;;;16.77;13.95;;;;;;;;;;5035245;28;20570;-76
2022/03/23 06:16:21;;;;;;;17.35;14.23;;;;;;;;;;5035596;28;20053;-77
2022/03/23 06:18:50;;;;;;;20.63;13.93;;;;;;;;;;5037898;28;20049;-78
2022/03/23 06:21:22;;;;;;;16.92;13.27;;;;;;;;;;5045204;28;20057;-72
2022/03/23 06:23:51;;;;;;;18.05;14.85;;;;;;;;;;5038060;28;20046;-71
2022/03/23 06:26:24;;;;;;;19.50;13.57;;;;;;;;;;5050537;28;20041;-72
2022/03/23 06:28:53;;;;;;;17.65;12.48;;;;;;;;;;5049510;28;20053;-73
2022/03/23 06:31:23;;;;;;;18.40;14.23;;;;;;;;;;5048897;28;20408;-72
2022/03/23 06:33:52;;;;;;;17.33;14.13;;;;;;;;;;5047997;28;20045;-71
2022/03/23 06:36:20;;;;;;;17.20;13.73;;;;;;;;;;5046107;28;20128;-71
2022/03/23 06:38:51;;;;;;;18.38;14.30;;;;;;;;;;5041270;28;20055;-73
2022/03/23 06:41:20;;;;;;;19.77;13.48;;;;;;;;;;5037994;28;20124;-73
2022/03/23 06:43:48;;;;;;;15.57;12.95;;;;;;;;;;5035465;28;20493;-73
2022/03/23 06:46:17;;;;;;;18.75;13.63;;;;;;;;;;5037672;28;20053;-73
2022/03/23 06:48:47;;;;;;;18.20;13.40;;;;;;;;;;5041908;28;20045;-73
2022/03/23 06:51:16;;;;;;;16.58;13.18;;;;;;;;;;5037724;28;20144;-75
2022/03/23 06:53:45;;;;;;;17.77;11.68;;;;;;;;;;5035351;28;20046;-74
2022/03/23 06:56:14;;;;;;;19.02;13.25;;;;;;;;;;5037678;28;20045;-73
2022/03/23 06:58:42;;;;;;;16.27;12.77;;;;;;;;;;5036268;28;20076;-71
2022/03/23 07:01:09;;;;;;;19.30;12.80;;;;;;;;;;5036833;28;20045;-71
2022/03/23 07:03:38;;;;;;;25.20;14.02;;;;;;;;;;5039500;28;20500;-74
2022/03/23 07:06:07;;;;;;;16.58;14.80;;;;;;;;;;5040737;28;20069;-75
2022/03/23 07:11:23;;;;;;;21.52;13.73;;;;;;;;;;5053246;28;20049;-76
2022/03/23 07:13:55;;;;;;;17.25;13.30;;;;;;;;;;5053533;28;20057;-74
2022/03/23 07:16:24;;;;;;;21.58;14.60;;;;;;;;;;5054119;28;20466;-74
2022/03/23 07:18:53;;;;;;;18.55;13.38;;;;;;;;;;5054260;28;20132;-75
2022/03/23 07:21:23;;;;;;;20.55;13.63;;;;;;;;;;5054313;28;20179;-74
2022/03/23 07:23:52;;;;;;;20.35;12.38;;;;;;;;;;5054250;28;20048;-74
2022/03/23 07:26:22;;;;;;;21.63;13.55;;;;;;;;;;5054192;28;20116;-75
2022/03/23 07:28:50;;;;;;;14.27;11.85;;;;;;;;;;5053811;28;20071;-74
2022/03/23 07:31:19;;;;;;;17.20;12.70;;;;;;;;;;5054032;28;20041;-75
2022/03/23 07:33:50;;;;;;;15.02;12.43;;;;;;;;;;5049312;28;20450;-74
2022/03/23 07:36:18;;;;;;;21.77;12.88;;;;;;;;;;5034603;28;20540;-75
2022/03/23 07:38:47;;;;;;;16.00;11.85;;;;;;;;;;5034832;28;20049;-76
2022/03/23 07:41:15;;;;;;;13.10;10.73;;;;;;;;;;5034485;28;20049;-74
2022/03/23 07:43:43;;;;;;;16.23;12.43;;;;;;;;;;5034617;28;20048;-74
2022/03/23 07:46:11;;;;;;;13.40;11.55;;;;;;;;;;5035485;28;20500;-74
2022/03/23 07:48:40;;;;;;;18.95;12.05;;;;;;;;;;5035891;28;20524;-73
2022/03/23 07:51:08;;;;;;;16.13;12.98;;;;;;;;;;5033253;28;20049;-74
2022/03/23 07:53:39;;;;;;;16.13;12.73;;;;;;;;;;5034593;28;20046;-74
2022/03/23 07:56:07;;;;;;;14.85;11.80;;;;;;;;;;5034382;28;20128;-73
2022/03/23 07:58:36;;;;;;;16.73;12.20;;;;;;;;;;5034477;28;20065;-74
2022/03/23 08:01:07;;;;;;;14.30;12.80;;;;;;;;;;5034517;28;20516;-74
2022/03/23 08:03:37;;;;;;;17.50;13.38;;;;;;;;;;5042441;28;20520;-74
2022/03/23 08:06:05;;;;;;;18.10;13.57;;;;;;;;;;5033980;28;20041;-74
2022/03/23 08:08:34;;;;;;;14.38;12.90;;;;;;;;;;5034399;28;20447;-74
2022/03/23 08:11:03;;;;;;;20.90;14.60;;;;;;;;;;5053025;28;20085;-74
2022/03/23 08:13:31;;;;;;;16.13;13.77;;;;;;;;;;5033943;28;20081;-74
2022/03/23 08:16:00;;;;;;;20.30;14.40;;;;;;;;;;5078479;28;20063;-74
2022/03/23 08:18:32;;;;;;;16.92;14.75;;;;;;;;;;5034392;28;20516;-74
2022/03/23 08:21:01;;;;;;;20.10;15.27;;;;;;;;;;5033708;28;20073;-74
2022/03/23 08:23:30;;;;;;;18.88;15.27;;;;;;;;;;5035042;28;20049;-73
2022/03/23 08:25:58;;;;;;;20.70;16.70;;;;;;;;;;5053320;28;20189;-73
2022/03/23 08:28:27;;;;;;;26.35;16.40;;;;;;;;;;5053177;28;20139;-74
2022/03/23 08:30:56;;;;;;;20.90;14.88;;;;;;;;;;5052729;28;20443;-74
2022/03/23 08:33:25;;;;;;;23.27;15.30;;;;;;;;;;5048295;28;20057;-74
2022/03/23 08:35:53;;;;;;;17.10;15.50;;;;;;;;;;5033321;28;20153;-74
2022/03/23 08:38:22;;;;;;;16.50;14.75;;;;;;;;;;5032880;28;20049;-74
2022/03/23 08:40:52;;;;;;;20.95;14.90;;;;;;;;;;5033545;28;20144;-74
2022/03/23 08:43:20;;;;;;;16.85;12.75;;;;;;;;;;5038385;28;20508;-74
2022/03/23 08:45:48;;;;;;;19.95;16.95;;;;;;;;;;5052591;28;20445;-74
2022/03/23 08:48:20;;;;;;;23.52;15.75;;;;;;;;;;5052550;28;20053;-74
2022/03/23 08:50:50;;;;;;;20.67;17.00;;;;;;;;;;5053025;28;20048;-74
2022/03/23 08:53:19;;;;;;;20.10;17.90;;;;;;;;;;5053034;28;20492;-74
2022/03/23 08:55:47;;;;;;;23.98;19.10;;;;;;;;;;5053429;28;20049;-74
2022/03/23 08:58:16;;;;;;;26.63;20.10;;;;;;;;;;5053013;28;20094;-74
2022/03/23 09:00:46;;;;;;;20.73;17.85;;;;;;;;;;5051609;28;20087;-74
2022/03/23 09:03:15;;;;;;;23.83;18.30;;;;;;;;;;5052671;28;20049;-74
2022/03/23 09:05:45;;;;;;;21.70;19.50;;;;;;;;;;5051689;28;20048;-74
2022/03/23 09:08:14;;;;;;;22.52;19.88;;;;;;;;;;5053056;28;20459;-74
2022/03/23 09:10:41;;;;;;;21.25;18.90;;;;;;;;;;5036723;28;20560;-74
2022/03/23 09:13:09;;;;;;;21.58;19.42;;;;;;;;;;5032999;28;20053;-74
2022/03/23 09:15:39;;;;;;;21.42;18.42;;;;;;;;;;5036756;28;20048;-74
2022/03/23 09:18:08;;;;;;;20.40;18.40;;;;;;;;;;5037008;28;20057;-75
2022/03/23 09:20:37;;;;;;;22.63;19.92;;;;;;;;;;5036837;28;20092;-75
2022/03/23 09:23:05;;;;;;;30.52;22.65;;;;;;;;;;5051865;28;20102;-75
2022/03/23 09:25:35;;;;;;;23.85;21.13;;;;;;;;;;5056359;28;20045;-74
2022/03/23 09:28:05;;;;;;;24.02;21.40;;;;;;;;;;5056463;28;20049;-75
2022/03/23 09:30:33;;;;;;;23.48;21.15;;;;;;;;;;5055051;28;20045;-76
2022/03/23 09:33:01;;;;;;;22.10;19.73;;;;;;;;;;5056195;28;20053;-76
2022/03/23 09:35:30;;;;;;;22.08;19.77;;;;;;;;;;5056213;28;20458;-76
2022/03/23 09:38:03;;;;;;;21.15;19.00;;;;;;;;;;5049888;28;20058;-76
2022/03/23 09:40:32;;;;;;;24.15;21.77;;;;;;;;;;5036881;28;20057;-76
2022/03/23 09:43:08;;;;;;;22.83;20.40;;;;;;;;;;5036133;28;20057;-76
2022/03/23 09:45:46;;;;;;;27.23;20.05;;;;;;;;;;5036212;28;20167;-75
2022/03/23 09:48:17;;;;;;;24.77;20.10;;;;;;;;;;5036404;28;20046;-75
2022/03/23 09:50:48;;;;;;;22.65;20.33;;;;;;;;;;5040171;28;20045;-75
2022/03/23 09:53:19;;;;;;;24.05;21.80;;;;;;;;;;5036733;28;20042;-75
2022/03/23 09:55:51;;;;;;;22.13;20.02;;;;;;;;;;5036411;28;20064;-75
2022/03/23 09:58:19;;;;;;;23.35;20.80;;;;;;;;;;5036203;28;20520;-76
2022/03/23 10:00:49;;;;;;;20.35;18.40;;;;;;;;;;5036371;28;20053;-75
2022/03/23 10:03:41;;;;;;;22.05;19.67;;;;;;;;;;5036089;28;20080;-74
2022/03/23 10:06:47;;;;;;;22.85;20.48;;;;;;;;;;5035906;28;20051;-76
2022/03/23 10:09:27;;;;;;;23.63;21.23;;;;;;;;;;5036101;28;20055;-75
2022/03/23 10:12:49;;;;;;;22.30;19.90;;;;;;;;;;5036206;28;20054;-76
2022/03/23 10:15:54;;;;;;;31.70;18.98;;;;;;;;;;5035859;28;20049;-76
2022/03/23 10:18:25;;;;;;;22.30;20.25;;;;;;;;;;5035911;28;20141;-76
2022/03/23 10:20:53;;;;;;;23.02;20.92;;;;;;;;;;5035318;28;20088;-76
2022/03/23 10:23:22;;;;;;;22.67;17.55;;;;;;;;;;5035829;28;20129;-76
2022/03/23 10:25:51;;;;;;;20.60;18.50;;;;;;;;;;5035272;28;20045;-76
2022/03/23 10:28:20;;;;;;;20.98;18.75;;;;;;;;;;5035768;28;20041;-76
2022/03/23 10:30:48;;;;;;;21.60;19.50;;;;;;;;;;5035354;28;20060;-76
2022/03/23 10:33:22;;;;;;;23.83;18.63;;;;;;;;;;5040201;28;20041;-76
2022/03/23 10:35:52;;;;;;;32.55;19.02;;;;;;;;;;5055407;28;20790;-76
2022/03/23 10:38:23;;;;;;;23.75;20.13;;;;;;;;;;5043768;28;20065;-76
2022/03/23 10:40:52;;;;;;;20.83;18.90;;;;;;;;;;5036267;28;20080;-76
2022/03/23 10:43:35;;;;;;;21.33;19.27;;;;;;;;;;5035267;28;20076;-76
2022/03/23 10:46:13;;;;;;;24.38;19.10;;;;;;;;;;5034183;28;20075;-76
2022/03/23 10:49:04;;;;;;;21.67;19.42;;;;;;;;;;5035515;28;20059;-76
2022/03/23 10:51:37;;;;;;;27.02;21.02;;;;;;;;;;5035459;28;20048;-76
2022/03/23 10:54:21;;;;;;;22.50;20.35;;;;;;;;;;5036339;28;20050;-76
2022/03/23 10:56:48;;;;;;;19.30;17.50;;;;;;;;;;5035087;28;20107;-76
2022/03/23 10:59:22;;;;;;;21.65;19.33;;;;;;;;;;5034768;28;20432;-76
2022/03/23 11:01:55;;;;;;;21.42;19.27;;;;;;;;;;5035184;28;20080;-76
2022/03/23 11:04:28;;;;;;;20.35;18.38;;;;;;;;;;5041498;28;20433;-76
2022/03/23 11:06:59;;;;;;;20.80;18.52;;;;;;;;;;5034692;28;20050;-76
2022/03/23 11:18:28;;;;;;;22.15;19.75;;;;;;;;;;5035150;28;20048;-77
2022/03/23 11:20:57;;;;;;;21.80;19.25;;;;;;;;;;5034319;28;20054;-77
2022/03/23 11:23:30;;;;;;;21.02;19.00;;;;;;;;;;5035031;28;20053;-76
2022/03/23 11:26:07;;;;;;;19.80;17.88;;;;;;;;;;5034622;28;20574;-76
2022/03/23 11:28:44;;;;;;;20.27;18.17;;;;;;;;;;5034781;28;20142;-77
2022/03/23 11:31:16;;;;;;;19.67;17.65;;;;;;;;;;5034323;28;20492;-77
2022/03/23 11:33:51;;;;;;;24.45;18.50;;;;;;;;;;5053894;28;20051;-76
2022/03/23 11:36:19;;;;;;;20.27;18.17;;;;;;;;;;5032905;28;20065;-76
2022/03/23 11:38:52;;;;;;;19.35;17.55;;;;;;;;;;5033716;28;20527;-77
2022/03/23 11:41:20;;;;;;;26.80;19.52;;;;;;;;;;5034242;28;20056;-76
2022/03/23 11:43:49;;;;;;;20.52;18.67;;;;;;;;;;5033243;28;20053;-77
2022/03/23 11:46:24;;;;;;;21.40;16.70;;;;;;;;;;5033263;28;20046;-77
2022/03/23 11:49:15;;;;;;;21.58;18.27;;;;;;;;;;5034312;28;20065;-76
2022/03/23 11:52:19;;;;;;;21.50;19.30;;;;;;;;;;5052650;28;20526;-77
2022/03/23 11:57:49;;;;;;;21.15;18.35;;;;;;;;;;5054005;28;20461;-77
2022/03/23 12:00:20;;;;;;;20.05;18.05;;;;;;;;;;5053592;28;20057;-76
2022/03/23 12:02:56;;;;;;;19.45;17.45;;;;;;;;;;5053120;28;20044;-76
2022/03/23 12:05:48;;;;;;;23.90;20.02;;;;;;;;;;5053734;28;20056;-77
2022/03/23 12:08:49;;;;;;;19.52;17.60;;;;;;;;;;5053920;28;20052;-77
2022/03/23 12:11:41;;;;;;;17.92;16.13;;;;;;;;;;5053875;28;20504;-78
2022/03/23 12:14:32;;;;;;;18.40;16.25;;;;;;;;;;5054037;28;20107;-75
2022/03/23 12:17:04;;;;;;;20.02;14.60;;;;;;;;;;5053870;28;20041;-76
2022/03/23 12:20:05;;;;;;;16.73;15.25;;;;;;;;;;5048826;28;20041;-76
2022/03/23 12:22:33;;;;;;;16.58;15.07;;;;;;;;;;5033671;28;20049;-76
2022/03/23 12:25:24;;;;;;;15.70;14.25;;;;;;;;;;5046680;28;20050;-76
2022/03/23 12:28:16;;;;;;;18.50;14.38;;;;;;;;;;5035017;28;20424;-76
2022/03/23 12:30:56;;;;;;;18.48;16.75;;;;;;;;;;5033178;28;20060;-76
2022/03/23 12:33:29;;;;;;;16.13;14.63;;;;;;;;;;5034134;28;20053;-76
2022/03/23 12:36:05;;;;;;;16.35;14.80;;;;;;;;;;5033652;28;20049;-76
2022/03/23 12:38:34;;;;;;;15.77;14.38;;;;;;;;;;5033755;28;20140;-76
2022/03/23 12:41:08;;;;;;;13.52;12.27;;;;;;;;;;5047411;28;20084;-77
2022/03/23 12:43:44;;;;;;;18.70;16.83;;;;;;;;;;5033224;28;20054;-77
2022/03/23 12:46:23;;;;;;;17.80;15.95;;;;;;;;;;5032901;28;20106;-76
2022/03/23 12:58:01;;;;;;;20.13;14.00;;;;;;;;;;5052666;28;20045;-77
2022/03/23 13:00:37;;;;;;;15.75;14.35;;;;;;;;;;5053438;28;20049;-76
2022/03/23 13:03:06;;;;;;;16.90;14.18;;;;;;;;;;5053206;28;20399;-77
2022/03/23 13:05:38;;;;;;;15.25;13.68;;;;;;;;;;5052618;28;20059;-77
2022/03/23 13:08:29;;;;;;;15.30;13.88;;;;;;;;;;5052572;28;20077;-76
2022/03/23 13:11:08;;;;;;;17.90;14.60;;;;;;;;;;5053213;28;20049;-75
2022/03/23 13:13:39;;;;;;;16.02;14.27;;;;;;;;;;5053115;28;20048;-74
2022/03/23 13:16:12;;;;;;;14.45;12.95;;;;;;;;;;5052981;28;20053;-75
2022/03/23 13:18:44;;;;;;;16.52;15.10;;;;;;;;;;5040367;28;20049;-75
2022/03/23 13:21:21;;;;;;;16.20;14.55;;;;;;;;;;5033159;28;20054;-75
2022/03/23 13:23:51;;;;;;;20.02;16.17;;;;;;;;;;5033095;28;20049;-75
2022/03/23 13:26:21;;;;;;;18.15;15.07;;;;;;;;;;5032800;28;20576;-75
2022/03/23 13:28:58;;;;;;;17.63;15.82;;;;;;;;;;5033037;28;20049;-75
2022/03/23 13:31:31;;;;;;;16.08;14.38;;;;;;;;;;5033038;28;20057;-75
2022/03/23 13:34:06;;;;;;;18.13;15.65;;;;;;;;;;5044844;28;20063;-75
2022/03/23 13:36:37;;;;;;;16.20;14.68;;;;;;;;;;5035385;28;20152;-75
2022/03/23 13:39:11;;;;;;;18.25;15.68;;;;;;;;;;5032979;28;20060;-75
2022/03/23 13:44:57;;;;;;;16.98;13.73;;;;;;;;;;5034882;28;20132;-75
2022/03/23 13:47:47;;;;;;;17.15;15.20;;;;;;;;;;5048433;28;20056;-73
2022/03/23 13:50:16;;;;;;;17.95;16.27;;;;;;;;;;5052372;28;20056;-73
2022/03/23 13:53:07;;;;;;;20.92;16.05;;;;;;;;;;5052308;28;20118;-73
2022/03/23 13:55:36;;;;;;;14.02;12.70;;;;;;;;;;5051944;28;20049;-74
2022/03/23 13:58:06;;;;;;;16.40;14.50;;;;;;;;;;5051791;28;20049;-73
2022/03/23 14:00:35;;;;;;;14.60;13.10;;;;;;;;;;5051563;28;20758;-76
2022/03/23 14:03:04;;;;;;;16.88;15.32;;;;;;;;;;5043368;28;20049;-73
2022/03/23 14:05:33;;;;;;;15.85;14.27;;;;;;;;;;5038369;28;20059;-74
2022/03/23 14:08:02;;;;;;;20.15;15.55;;;;;;;;;;5055563;28;20132;-73
2022/03/23 14:10:37;;;;;;;16.10;14.65;;;;;;;;;;5055918;28;20454;-73
2022/03/23 14:13:09;;;;;;;15.48;14.07;;;;;;;;;;5054956;28;20049;-75
2022/03/23 14:15:52;;;;;;;15.73;14.13;;;;;;;;;;5055875;28;20493;-75
2022/03/23 14:18:22;;;;;;;18.60;15.75;;;;;;;;;;5055437;28;20057;-75
2022/03/23 14:20:55;;;;;;;16.17;14.35;;;;;;;;;;5055634;28;20059;-76
2022/03/23 14:23:28;;;;;;;16.63;15.02;;;;;;;;;;5053604;28;20057;-74
2022/03/23 14:26:17;;;;;;;15.27;13.77;;;;;;;;;;5035624;28;20137;-76
2022/03/23 14:28:51;;;;;;;17.30;15.60;;;;;;;;;;5032710;28;20057;-76
2022/03/23 14:31:21;;;;;;;17.00;15.32;;;;;;;;;;5040967;28;20068;-76
2022/03/23 14:34:02;;;;;;;16.83;15.18;;;;;;;;;;5052396;28;20076;-76
2022/03/23 14:36:30;;;;;;;16.63;14.70;;;;;;;;;;5053799;28;20065;-76
2022/03/23 14:39:00;;;;;;;19.83;14.90;;;;;;;;;;5053562;28;20136;-70
2022/03/23 14:41:30;;;;;;;17.48;15.23;;;;;;;;;;5053143;28;20160;-75
2022/03/23 14:43:59;;;;;;;17.85;15.40;;;;;;;;;;5052469;28;20403;-76
2022/03/23 14:46:30;;;;;;;20.63;14.30;;;;;;;;;;5053351;28;20052;-74
2022/03/23 14:49:12;;;;;;;17.45;15.60;;;;;;;;;;5034976;28;20049;-75
2022/03/23 14:51:46;;;;;;;15.82;14.23;;;;;;;;;;5034907;28;20099;-75
2022/03/23 14:54:16;;;;;;;18.30;13.63;;;;;;;;;;5035989;28;20136;-75
2022/03/23 14:56:48;;;;;;;14.90;12.60;;;;;;;;;;5035026;28;20049;-75
2022/03/23 14:59:16;;;;;;;14.50;13.00;;;;;;;;;;5035007;28;20060;-76
2022/03/23 15:01:45;;;;;;;15.48;12.82;;;;;;;;;;5033722;28;20053;-75
2022/03/23 15:04:15;;;;;;;15.52;13.93;;;;;;;;;;5034922;28;20052;-74
2022/03/23 15:15:06;;;;;;;16.17;14.60;;;;;;;;;;5034644;28;20100;-75
2022/03/23 15:17:35;;;;;;;21.10;14.63;;;;;;;;;;5034404;28;20049;-74
2022/03/23 15:20:11;;;;;;;16.38;14.68;;;;;;;;;;5034056;28;20115;-75
2022/03/23 15:22:41;;;;;;;17.02;15.23;;;;;;;;;;5034556;28;20045;-75
2022/03/23 15:25:11;;;;;;;18.05;14.80;;;;;;;;;;5034153;28;20523;-74